Time;durP1;ratioP1;P1;durP2;ratioP2;P2;SDS_P1;SDS_P2;PMS_P1;PMS_P2;Temp;Humidity;BMP_temperature;BMP_pressure;BME280_temperature;BME280_humidity;BME280_pressure;Samples;Min_cycle;Max_cycle;Signal;HPM_P1;HPM_P2
2023/12/24 00:01:34;;;;;;;;;0.00;0.00;;;;;21.45;50.49;101549.56;4932766;28;45481;-72
2023/12/24 00:04:00;;;;;;;;;0.67;0.00;;;;;21.45;50.81;101550.38;4936787;28;45693;-73
2023/12/24 00:06:25;;;;;;;;;0.00;0.00;;;;;21.40;50.24;101539.44;4935457;28;52999;-74
2023/12/24 00:08:50;;;;;;;;;0.00;0.00;;;;;;;;4934476;28;45371;-74
2023/12/24 00:11:15;;;;;;;;;0.00;0.00;;;;;21.45;49.64;101560.97;4937439;28;45524;-74
2023/12/24 00:13:41;;;;;;;;;0.00;0.00;;;;;21.32;49.75;101550.00;4937238;28;50064;-74
2023/12/24 00:16:06;;;;;;;;;0.00;0.00;;;;;;;;4935430;28;48829;-75
2023/12/24 00:18:31;;;;;;;;;0.00;0.00;;;;;21.40;49.43;101557.97;4937446;28;45433;-74
2023/12/24 00:20:57;;;;;;;;;0.67;0.00;;;;;21.14;49.24;101514.69;4933546;28;45435;-74
2023/12/24 00:23:22;;;;;;;;;0.00;0.00;;;;;21.42;49.32;101550.69;4936935;28;45390;-74
2023/12/24 00:25:47;;;;;;;;;0.67;0.00;;;;;21.39;49.94;101546.56;4937148;28;45394;-75
2023/12/24 00:28:13;;;;;;;;;0.00;0.00;;;;;21.29;49.32;101530.81;4937451;28;45880;-79
2023/12/24 00:30:38;;;;;;;;;0.00;0.00;;;;;21.15;49.82;101502.28;4937824;28;45399;-76
2023/12/24 00:33:04;;;;;;;;;0.00;0.00;;;;;21.34;49.96;101543.56;4937557;28;46123;-77
2023/12/24 00:35:31;;;;;;;;;0.00;0.00;;;;;21.27;49.63;101526.66;4937577;28;45431;-76
2023/12/24 00:37:57;;;;;;;;;0.00;0.00;;;;;21.00;49.49;101488.81;4937420;28;45593;-76
2023/12/24 00:40:22;;;;;;;;;0.00;0.00;;;;;20.85;50.00;101469.03;4937356;28;45386;-76
2023/12/24 00:42:47;;;;;;;;;0.33;0.00;;;;;21.06;49.38;101509.34;4937103;28;51019;-77
2023/12/24 00:45:13;;;;;;;;;0.00;0.00;;;;;21.23;49.29;101552.63;4937458;28;45395;-77
2023/12/24 00:47:39;;;;;;;;;0.00;0.00;;;;;21.22;49.48;101552.75;4937642;28;45401;-77
2023/12/24 00:50:06;;;;;;;;;0.33;0.00;;;;;21.20;49.70;101546.81;4937392;28;45335;-76
2023/12/24 00:52:32;;;;;;;;;0.00;0.00;;;;;21.18;49.75;101541.69;4936834;28;46494;-78
2023/12/24 00:54:57;;;;;;;;;0.00;0.00;;;;;21.01;49.78;101509.81;4937282;28;45377;-78
2023/12/24 00:57:22;;;;;;;;;0.00;0.00;;;;;21.09;49.47;101519.63;4936738;28;56025;-77
2023/12/24 00:59:48;;;;;;;;;0.00;0.00;;;;;21.16;49.73;101519.81;4937213;28;45200;-77
2023/12/24 01:02:13;;;;;;;;;0.00;0.00;;;;;21.13;49.20;101520.97;4936507;28;61537;-77
2023/12/24 01:04:38;;;;;;;;;0.00;0.00;;;;;21.02;49.35;101505.38;4939512;28;50230;-77
2023/12/24 01:07:04;;;;;;;;;0.00;0.00;;;;;21.11;49.72;101524.75;4940320;28;47333;-77
2023/12/24 01:09:29;;;;;;;;;0.00;0.00;;;;;21.00;49.42;101507.31;4940247;28;54203;-77
2023/12/24 01:11:54;;;;;;;;;0.00;0.00;;;;;20.94;49.84;101498.19;4940569;28;45990;-77
2023/12/24 01:14:20;;;;;;;;;0.33;0.33;;;;;21.04;49.75;101516.63;4940492;28;45389;-78
2023/12/24 01:16:45;;;;;;;;;0.00;0.00;;;;;20.82;49.31;101479.94;4940671;28;45328;-76
2023/12/24 01:19:10;;;;;;;;;0.00;0.00;;;;;21.06;49.38;101512.00;4940762;28;45328;-77
2023/12/24 01:21:36;;;;;;;;;1.00;0.00;;;;;21.04;49.84;101500.75;4940165;28;46144;-77
2023/12/24 01:24:01;;;;;;;;;0.00;0.00;;;;;21.03;49.41;101510.50;4940496;28;45336;-77
2023/12/24 01:26:26;;;;;;;;;1.00;0.00;;;;;21.03;49.78;101499.06;4940586;28;45268;-76
2023/12/24 01:28:52;;;;;;;;;0.00;0.00;;;;;20.96;49.71;101473.25;4940431;28;45339;-77
2023/12/24 01:31:17;;;;;;;;;0.00;0.00;;;;;20.95;49.13;101474.22;4940329;28;46119;-77
2023/12/24 01:33:42;;;;;;;;;0.00;0.00;;;;;20.95;49.51;101491.91;4940206;28;49782;-77
2023/12/24 01:36:09;;;;;;;;;0.00;0.00;;;;;21.00;49.14;101488.81;4939461;28;54280;-77
2023/12/24 01:38:35;;;;;;;;;0.00;0.00;;;;;20.87;49.71;101487.38;4940446;28;45387;-76
2023/12/24 01:41:00;;;;;;;;;0.00;0.00;;;;;20.93;49.69;101502.66;4939891;28;45530;-76
2023/12/24 01:43:25;;;;;;;;;0.33;0.00;;;;;20.98;49.63;101501.34;4939921;28;50524;-76
2023/12/24 01:45:51;;;;;;;;;0.33;0.00;;;;;20.83;49.69;101473.66;4940317;28;45373;-77
2023/12/24 01:48:17;;;;;;;;;0.00;0.00;;;;;20.98;49.13;101498.69;4940199;28;45419;-76
2023/12/24 01:50:47;;;;;;;;;0.00;0.00;;;;;20.84;48.94;101471.84;4939727;28;46122;-77
2023/12/24 01:53:14;;;;;;;;;0.33;0.00;;;;;20.98;49.16;101482.81;4940203;28;45388;-77
2023/12/24 01:55:39;;;;;;;;;0.00;0.00;;;;;20.98;49.05;101483.66;4939904;28;45504;-77
2023/12/24 01:58:05;;;;;;;;;0.00;0.00;;;;;20.80;49.28;101471.31;4939968;28;45506;-77
2023/12/24 02:00:31;;;;;;;;;0.67;0.00;;;;;20.98;49.16;101496.03;4939668;28;47186;-77
2023/12/24 02:02:58;;;;;;;;;0.00;0.00;;;;;20.80;49.25;101463.38;4939855;28;45504;-77
2023/12/24 02:05:25;;;;;;;;;0.00;0.00;;;;;20.99;48.96;101492.41;4939622;28;45406;-77
2023/12/24 02:07:51;;;;;;;;;0.00;0.00;;;;;20.98;48.86;101473.06;4939879;28;45425;-76
2023/12/24 02:10:18;;;;;;;;;0.00;0.00;;;;;20.89;48.97;101466.94;4939617;28;45344;-76
2023/12/24 02:12:43;;;;;;;;;0.00;0.00;;;;;20.98;49.05;101473.06;4939596;28;45444;-76
2023/12/24 02:15:09;;;;;;;;;0.33;0.00;;;;;20.98;49.16;101482.81;4939638;28;45400;-77
2023/12/24 02:17:35;;;;;;;;;0.00;0.00;;;;;20.97;49.47;101487.31;4939821;28;45389;-77
2023/12/24 02:20:01;;;;;;;;;2.00;0.00;;;;;20.97;49.26;101489.94;4954027;28;46086;-77
2023/12/24 02:22:27;;;;;;;;;0.67;0.00;;;;;20.96;49.46;101490.91;4939500;28;45319;-77
2023/12/24 02:24:54;;;;;;;;;2.00;0.00;;;;;20.89;48.98;101466.94;4939613;28;45406;-76
2023/12/24 02:27:32;;;;;;;;;1.67;0.00;;;;;20.95;49.35;101487.44;4939477;28;45525;-77
2023/12/24 02:30:06;;;;;;;;;1.67;0.00;;;;;20.71;49.33;101451.13;4939223;28;47200;-77
2023/12/24 02:32:35;;;;;;;;;0.00;0.00;;;;;20.96;49.32;101467.13;4939196;28;45465;-76
2023/12/24 02:35:03;;;;;;;;;0.00;0.00;;;;;20.96;49.03;101472.41;4939075;28;45430;-76
2023/12/24 02:37:29;;;;;;;;;0.00;0.00;;;;;20.95;49.36;101478.66;4939321;28;45235;-77
2023/12/24 02:39:54;;;;;;;;;0.00;0.00;;;;;20.96;49.40;101469.75;4939088;28;46421;-76
2023/12/24 02:42:20;;;;;;;;;3.00;1.00;;;;;20.96;49.46;101472.41;4938999;28;45460;-77
2023/12/24 02:44:45;;;;;;;;;1.00;0.00;;;;;20.84;48.79;101440.13;4939307;28;45317;-77
2023/12/24 02:47:10;;;;;;;;;0.00;0.00;;;;;20.76;49.42;101435.63;4939353;28;45221;-77
2023/12/24 02:49:35;;;;;;;;;0.00;0.00;;;;;20.95;49.28;101441.63;4938685;28;45337;-76
2023/12/24 02:52:01;;;;;;;;;0.67;0.67;;;;;20.88;48.75;101436.16;4938937;28;50062;-77
2023/12/24 02:54:26;;;;;;;;;0.00;0.00;;;;;20.96;49.36;101432.72;4938790;28;54439;-76
2023/12/24 02:56:51;;;;;;;;;1.00;0.33;;;;;20.88;48.77;101420.28;4939174;28;45379;-76
2023/12/24 02:59:17;;;;;;;;;0.00;0.00;;;;;20.92;49.26;101426.09;4938869;28;47188;-76
2023/12/24 03:01:42;;;;;;;;;2.00;0.00;;;;;20.96;48.83;101438.84;4938923;28;45462;-76
2023/12/24 03:04:07;;;;;;;;;0.00;0.00;;;;;20.95;49.18;101426.59;4938834;28;45361;-77
2023/12/24 03:06:33;;;;;;;;;0.00;0.00;;;;;20.68;48.90;101386.16;4939113;28;45279;-76
2023/12/24 03:08:58;;;;;;;;;1.00;1.00;;;;;20.79;48.89;101384.22;4938691;28;45404;-77
2023/12/24 03:11:25;;;;;;;;;3.67;0.00;;;;;20.95;48.73;101407.25;4938844;28;45349;-77
2023/12/24 03:13:50;;;;;;;;;1.00;1.00;;;;;20.79;48.89;101379.75;4938937;28;45471;-76
2023/12/24 03:16:17;;;;;;;;;1.00;0.00;;;;;20.91;49.27;101395.34;4938795;28;45432;-78
2023/12/24 03:18:42;;;;;;;;;1.00;0.00;;;;;20.96;49.08;101398.34;4938344;28;46458;-76
2023/12/24 03:21:07;;;;;;;;;1.00;0.67;;;;;20.96;48.92;101385.09;4938535;28;45382;-77
2023/12/24 03:23:33;;;;;;;;;2.00;0.00;;;;;20.95;49.13;101389.56;4938869;28;45365;-76
2023/12/24 03:25:58;;;;;;;;;2.00;0.00;;;;;20.87;48.99;101383.44;4938200;28;45331;-77
2023/12/24 03:28:23;;;;;;;;;0.00;0.00;;;;;20.91;48.87;101388.25;4938498;28;46280;-76
2023/12/24 03:30:49;;;;;;;;;2.67;1.33;;;;;20.65;49.25;101348.63;4938184;28;52894;-76
2023/12/24 03:33:14;;;;;;;;;2.67;1.00;;;;;20.83;48.89;101390.84;4938251;28;45358;-77
2023/12/24 03:35:40;;;;;;;;;0.67;0.67;;;;;20.95;48.93;101409.88;4938480;28;45360;-77
2023/12/24 03:38:06;;;;;;;;;0.00;0.00;;;;;20.80;49.21;101391.97;4938390;28;46327;-76
2023/12/24 03:40:31;;;;;;;;;0.00;0.00;;;;;20.94;49.25;101409.09;4938267;28;45413;-77
2023/12/24 03:42:56;;;;;;;;;2.33;0.67;;;;;20.88;48.98;101396.47;4938443;28;45336;-76
2023/12/24 03:45:22;;;;;;;;;0.00;0.00;;;;;20.95;48.77;101412.53;4938373;28;45388;-76
2023/12/24 03:47:48;;;;;;;;;2.00;1.00;;;;;20.87;48.77;101400.09;4938000;28;46050;-77
2023/12/24 03:50:13;;;;;;;;;1.67;0.33;;;;;20.95;48.99;101409.88;4938195;28;45395;-77
2023/12/24 03:52:39;;;;;;;;;0.00;0.00;;;;;20.84;49.10;101393.31;4938316;28;45284;-77
2023/12/24 03:55:05;;;;;;;;;3.33;1.00;;;;;20.68;48.80;101362.38;4938222;28;45395;-76
2023/12/24 03:57:30;;;;;;;;;1.33;0.67;;;;;20.94;48.94;101401.16;4937899;28;45962;-76
2023/12/24 03:59:55;;;;;;;;;1.00;1.00;;;;;20.83;49.21;101389.03;4937471;28;59419;-77
2023/12/24 04:02:24;;;;;;;;;2.67;1.00;;;;;20.92;48.96;101381.13;4937785;28;45391;-77
2023/12/24 04:04:49;;;;;;;;;3.00;0.00;;;;;20.89;48.99;101377.00;4938110;28;45514;-77
2023/12/24 04:07:15;;;;;;;;;1.33;1.00;;;;;20.89;48.99;101377.00;4937870;28;45275;-76
2023/12/24 04:09:42;;;;;;;;;2.00;0.00;;;;;20.91;48.88;101380.31;4937984;28;45287;-76
2023/12/24 04:12:08;;;;;;;;;0.00;0.00;;;;;20.77;48.86;101349.16;4937958;28;45455;-77
2023/12/24 04:14:36;;;;;;;;;0.33;0.33;;;;;20.93;48.65;101373.03;4937830;28;45267;-77
2023/12/24 04:17:02;;;;;;;;;2.00;0.00;;;;;20.77;48.58;101341.22;4937445;28;46318;-77
2023/12/24 04:19:27;;;;;;;;;4.00;1.00;;;;;20.85;49.10;101346.53;4937645;28;45383;-76
2023/12/24 04:21:52;;;;;;;;;0.00;0.00;;;;;20.93;48.71;101358.97;4937880;28;45499;-76
2023/12/24 04:24:18;;;;;;;;;0.67;0.00;;;;;20.84;48.49;101327.19;4937692;28;47117;-76
2023/12/24 04:26:43;;;;;;;;;0.67;0.67;;;;;20.93;48.73;101354.50;4937591;28;49381;-77
2023/12/24 04:29:08;;;;;;;;;0.00;0.00;;;;;20.92;48.59;101344.91;4937352;28;55989;-77
2023/12/24 04:31:38;;;;;;;;;0.00;0.00;;;;;20.83;48.76;101328.19;4937756;28;45307;-76
2023/12/24 04:34:03;;;;;;;;;0.33;0.33;;;;;20.89;48.42;101334.69;4937632;28;45407;-76
2023/12/24 04:36:28;;;;;;;;;0.00;0.00;;;;;20.80;48.56;101323.22;4936832;28;63336;-76
2023/12/24 04:38:54;;;;;;;;;1.00;1.00;;;;;20.88;48.44;101325.06;4936742;28;45501;-76
2023/12/24 04:41:19;;;;;;;;;0.00;0.00;;;;;20.93;48.86;101321.94;4937232;28;49771;-77
2023/12/24 04:43:45;;;;;;;;;0.33;0.33;;;;;20.81;48.84;101306.38;4935985;28;45396;-76
2023/12/24 04:46:10;;;;;;;;;0.00;0.00;;;;;20.89;48.68;101310.88;4937252;28;46051;-77
2023/12/24 04:48:35;;;;;;;;;0.00;0.00;;;;;20.76;49.01;101300.75;4937444;28;45452;-77
2023/12/24 04:51:01;;;;;;;;;0.33;0.33;;;;;20.92;48.83;101323.75;4937573;28;45283;-77
2023/12/24 04:53:26;;;;;;;;;1.00;0.00;;;;;20.92;48.68;101323.75;4937341;28;45379;-77
2023/12/24 04:55:54;;;;;;;;;2.00;0.00;;;;;20.88;48.71;101308.38;4937218;28;47642;-78
2023/12/24 04:58:19;;;;;;;;;1.00;0.67;;;;;20.87;48.66;101304.09;4936920;28;45291;-77
2023/12/24 05:00:45;;;;;;;;;1.33;0.00;;;;;20.78;48.44;101288.19;4937308;28;45297;-77
2023/12/24 05:03:10;;;;;;;;;0.00;0.00;;;;;20.88;48.58;101301.25;4937347;28;45360;-77
2023/12/24 05:05:35;;;;;;;;;1.00;1.00;;;;;20.88;48.28;101303.91;4936943;28;50667;-76
2023/12/24 05:08:00;;;;;;;;;1.00;1.00;;;;;20.92;48.66;101312.38;4936837;28;54967;-77
2023/12/24 05:10:27;;;;;;;;;0.67;0.67;;;;;20.91;48.67;101308.88;4937321;28;45337;-76
2023/12/24 05:12:52;;;;;;;;;0.00;0.00;;;;;20.74;48.49;101287.66;4936839;28;45389;-77
2023/12/24 05:15:18;;;;;;;;;2.00;0.00;;;;;20.83;48.54;101296.47;4936993;28;45923;-77
2023/12/24 05:17:43;;;;;;;;;1.33;0.33;;;;;20.90;48.48;101307.22;4937226;28;45373;-76
2023/12/24 05:20:08;;;;;;;;;1.00;0.00;;;;;20.77;48.39;101278.59;4937070;28;46319;-76
2023/12/24 05:22:34;;;;;;;;;1.00;1.00;;;;;20.87;48.45;101309.38;4937178;28;45454;-76
2023/12/24 05:24:59;;;;;;;;;0.33;0.00;;;;;20.72;48.18;101279.06;4936875;28;46143;-76
2023/12/24 05:27:24;;;;;;;;;0.00;0.00;;;;;20.81;48.38;101298.44;4936750;28;45398;-76
2023/12/24 05:29:50;;;;;;;;;0.00;0.00;;;;;20.89;48.34;101305.56;4937164;28;45363;-77
2023/12/24 05:32:15;;;;;;;;;1.33;0.00;;;;;20.65;48.85;101258.72;4937003;28;45386;-77
2023/12/24 05:34:40;;;;;;;;;0.00;0.00;;;;;20.88;48.26;101293.34;4936715;28;45342;-76
2023/12/24 05:37:05;;;;;;;;;0.00;0.00;;;;;20.85;48.16;101294.47;4936904;28;45486;-76
2023/12/24 05:39:31;;;;;;;;;0.67;0.00;;;;;20.91;48.56;101305.41;4937109;28;45371;-76
2023/12/24 05:41:56;;;;;;;;;0.67;0.67;;;;;20.66;48.18;101261.19;4936496;28;45346;-76
2023/12/24 05:44:22;;;;;;;;;0.67;0.00;;;;;20.76;48.41;101284.88;4936801;28;45482;-76
2023/12/24 05:46:52;;;;;;;;;0.67;0.67;;;;;20.81;48.25;101282.59;4936761;28;45370;-77
2023/12/24 05:49:17;;;;;;;;;0.67;0.00;;;;;20.70;48.24;101254.63;4937323;28;45372;-76
2023/12/24 05:51:42;;;;;;;;;0.00;0.00;;;;;20.68;48.50;101248.66;4940289;28;46002;-77
2023/12/24 05:54:08;;;;;;;;;0.00;0.00;;;;;20.81;48.59;101273.81;4939466;28;59016;-76
2023/12/24 05:56:33;;;;;;;;;0.00;0.00;;;;;20.90;48.36;101288.69;4939588;28;45659;-77
2023/12/24 05:58:58;;;;;;;;;0.00;0.00;;;;;20.57;48.19;101239.22;4939684;28;50259;-76
2023/12/24 06:01:23;;;;;;;;;0.00;0.00;;;;;20.59;48.13;101239.88;4939890;28;45328;-78
2023/12/24 06:03:49;;;;;;;;;0.67;0.00;;;;;20.87;48.47;101290.84;4939750;28;46444;-76
2023/12/24 06:06:14;;;;;;;;;1.00;1.00;;;;;20.69;48.48;101257.41;4938449;28;47916;-77
2023/12/24 06:08:39;;;;;;;;;1.00;1.00;;;;;20.89;48.45;101289.72;4939721;28;45327;-76
2023/12/24 06:11:05;;;;;;;;;0.00;0.00;;;;;20.89;48.32;101299.44;4938936;28;56449;-77
2023/12/24 06:13:30;;;;;;;;;0.33;0.33;;;;;20.58;48.18;101246.13;4939618;28;45484;-77
2023/12/24 06:15:55;;;;;;;;;0.00;0.00;;;;;20.76;47.86;101276.94;4939628;28;45465;-77
2023/12/24 06:18:21;;;;;;;;;0.00;0.00;;;;;20.67;48.39;101259.38;4939496;28;48762;-77
2023/12/24 06:20:46;;;;;;;;;0.00;0.00;;;;;20.89;48.18;101302.09;4939748;28;45406;-77
2023/12/24 06:23:12;;;;;;;;;0.33;0.00;;;;;20.65;48.25;101264.00;4939460;28;46516;-77
2023/12/24 06:25:37;;;;;;;;;0.00;0.00;;;;;20.87;48.62;101290.84;4939235;28;45364;-76
2023/12/24 06:28:03;;;;;;;;;0.00;0.00;;;;;20.87;48.49;101294.31;4939541;28;45358;-76
2023/12/24 06:30:28;;;;;;;;;3.67;0.00;;;;;20.87;48.14;101290.84;4939725;28;45300;-77
2023/12/24 06:32:53;;;;;;;;;1.00;0.00;;;;;20.82;48.11;101291.31;4938949;28;52416;-77
2023/12/24 06:35:21;;;;;;;;;0.00;0.00;;;;;20.66;48.37;101249.81;4938830;28;58681;-77
2023/12/24 06:37:46;;;;;;;;;0.00;0.00;;;;;20.87;47.97;101289.00;4939623;28;45374;-76
2023/12/24 06:40:11;;;;;;;;;0.00;0.00;;;;;20.85;48.08;101278.63;4939024;28;45545;-76
2023/12/24 06:42:37;;;;;;;;;0.67;0.67;;;;;20.78;47.99;101266.19;4939064;28;46349;-77
2023/12/24 06:45:02;;;;;;;;;1.00;1.00;;;;;20.80;48.10;101278.28;4939252;28;45331;-76
2023/12/24 06:47:28;;;;;;;;;0.00;0.00;;;;;20.72;48.48;101268.50;4939313;28;45319;-77
2023/12/24 06:49:53;;;;;;;;;0.33;0.33;;;;;20.88;48.28;101289.84;4939391;28;45276;-76
2023/12/24 06:52:19;;;;;;;;;0.00;0.00;;;;;20.88;48.14;101289.84;4939156;28;46230;-77
2023/12/24 06:54:45;;;;;;;;;0.00;0.00;;;;;20.74;48.32;101260.38;4938700;28;45433;-77
2023/12/24 06:57:10;;;;;;;;;0.67;0.00;;;;;20.69;48.20;101249.47;4939163;28;45343;-77
2023/12/24 06:59:36;;;;;;;;;0.33;0.33;;;;;20.80;48.21;101274.78;4937510;28;52304;-77
2023/12/24 07:02:01;;;;;;;;;1.00;1.00;;;;;20.75;47.93;101267.34;4937936;28;47031;-78
2023/12/24 07:04:26;;;;;;;;;0.00;0.00;;;;;20.87;47.98;101294.31;4938747;28;51276;-78
2023/12/24 07:06:52;;;;;;;;;0.67;0.67;;;;;20.88;48.25;101292.50;4939058;28;45801;-78
2023/12/24 07:09:18;;;;;;;;;1.00;1.00;;;;;20.87;48.30;101296.16;4938650;28;45367;-76
2023/12/24 07:11:44;;;;;;;;;2.00;0.00;;;;;20.65;48.27;101277.22;4938934;28;47323;-76
2023/12/24 07:14:09;;;;;;;;;0.00;0.00;;;;;20.86;48.35;101303.25;4938753;28;45480;-76
2023/12/24 07:16:34;;;;;;;;;0.00;0.00;;;;;20.87;48.06;101309.38;4938848;28;45375;-76
2023/12/24 07:19:02;;;;;;;;;0.00;0.00;;;;;20.85;47.97;101307.69;4938817;28;45471;-76
2023/12/24 07:21:28;;;;;;;;;0.00;0.00;;;;;20.84;47.97;101303.41;4938684;28;45528;-76
2023/12/24 07:23:53;;;;;;;;;1.67;0.00;;;;;20.81;48.57;101298.44;4938205;28;45431;-75
2023/12/24 07:26:20;;;;;;;;;0.00;0.00;;;;;20.68;48.28;101269.81;4938196;28;54390;-76
2023/12/24 07:28:46;;;;;;;;;2.00;0.33;;;;;20.78;47.83;101297.94;4938672;28;45426;-76
2023/12/24 07:31:14;;;;;;;;;1.00;0.00;;;;;20.82;48.19;101308.03;4938360;28;47307;-76
2023/12/24 07:33:39;;;;;;;;;0.00;0.00;;;;;20.83;48.29;101301.75;4938629;28;45310;-75
2023/12/24 07:36:05;;;;;;;;;0.00;0.00;;;;;20.55;47.90;101251.75;4938569;28;45390;-76
2023/12/24 07:38:30;;;;;;;;;0.00;0.00;;;;;20.71;47.90;101284.53;4938286;28;45437;-76
2023/12/24 07:40:56;;;;;;;;;0.00;0.00;;;;;20.80;48.18;101295.94;4937795;28;55907;-77
2023/12/24 07:43:22;;;;;;;;;0.33;0.33;;;;;20.81;48.27;101295.81;4938399;28;45235;-75
2023/12/24 07:45:47;;;;;;;;;0.67;0.67;;;;;20.85;48.28;101298.94;4938404;28;45374;-75
2023/12/24 07:48:12;;;;;;;;;1.00;0.00;;;;;20.85;48.03;101298.94;4938336;28;45347;-76
2023/12/24 07:50:38;;;;;;;;;1.33;0.00;;;;;20.81;48.08;101295.81;4938130;28;46031;-76
2023/12/24 07:53:03;;;;;;;;;0.00;0.00;;;;;20.85;48.19;101309.50;4938055;28;45383;-76
2023/12/24 07:55:28;;;;;;;;;0.00;0.00;;;;;20.67;47.95;101276.09;4938200;28;45414;-76
2023/12/24 07:57:53;;;;;;;;;2.00;1.00;;;;;20.84;47.82;101306.03;4937979;28;49751;-76
2023/12/24 08:00:19;;;;;;;;;0.33;0.33;;;;;20.84;48.23;101299.94;4937699;28;46945;-76
2023/12/24 08:02:44;;;;;;;;;0.00;0.00;;;;;20.84;48.28;101299.94;4937883;28;45442;-77
2023/12/24 08:05:09;;;;;;;;;2.00;0.00;;;;;20.84;47.92;101303.41;4938407;28;45354;-76
2023/12/24 08:07:35;;;;;;;;;2.00;2.00;;;;;20.72;48.39;101284.34;4937793;28;45358;-76
2023/12/24 08:10:00;;;;;;;;;0.00;0.00;;;;;20.84;47.85;101303.41;4937915;28;45444;-76
2023/12/24 08:12:26;;;;;;;;;0.00;0.00;;;;;20.74;48.08;101285.03;4937838;28;45406;-76
2023/12/24 08:14:51;;;;;;;;;0.00;0.00;;;;;20.82;47.72;101288.69;4937987;28;45413;-76
2023/12/24 08:17:16;;;;;;;;;0.00;0.00;;;;;20.78;47.73;101288.19;4937789;28;47221;-76
2023/12/24 08:19:42;;;;;;;;;0.67;0.67;;;;;20.77;47.90;101288.31;4937672;28;51546;-76
2023/12/24 08:22:07;;;;;;;;;0.33;0.00;;;;;20.85;48.20;101299.78;4937472;28;45379;-75
2023/12/24 08:24:34;;;;;;;;;2.00;0.33;;;;;20.86;47.78;101297.97;4937812;28;45427;-76
2023/12/24 08:26:59;;;;;;;;;3.33;0.00;;;;;20.84;48.19;101287.53;4937850;28;45454;-77
2023/12/24 08:29:25;;;;;;;;;0.00;0.00;;;;;20.85;48.15;101293.66;4937483;28;47214;-76
2023/12/24 08:31:51;;;;;;;;;0.00;0.00;;;;;20.84;47.69;101297.28;4938020;28;45340;-77
2023/12/24 08:34:17;;;;;;;;;2.00;1.00;;;;;20.85;48.04;101291.84;4937779;28;45397;-76
2023/12/24 08:36:42;;;;;;;;;0.00;0.00;;;;;20.55;48.06;101250.94;4937201;28;45414;-77
2023/12/24 08:39:09;;;;;;;;;0.67;0.67;;;;;20.85;47.79;101294.47;4937388;28;52916;-75
2023/12/24 08:41:34;;;;;;;;;1.00;0.00;;;;;20.85;48.05;101294.47;4937326;28;45537;-75
2023/12/24 08:43:59;;;;;;;;;0.00;0.00;;;;;20.80;47.92;101278.28;4937608;28;45283;-76
2023/12/24 08:46:25;;;;;;;;;4.33;0.00;;;;;20.80;47.94;101283.56;4937288;28;46895;-76
2023/12/24 08:48:50;;;;;;;;;0.00;0.00;;;;;20.85;48.20;101291.84;4937364;28;46181;-76
2023/12/24 08:51:16;;;;;;;;;0.00;0.00;;;;;20.58;47.86;101258.53;4936981;28;49055;-76
2023/12/24 08:53:41;;;;;;;;;0.67;0.00;;;;;20.72;47.89;101278.25;4937608;28;45355;-76
2023/12/24 08:56:06;;;;;;;;;0.33;0.33;;;;;20.79;48.09;101295.13;4937332;28;45379;-76
2023/12/24 08:58:31;;;;;;;;;0.33;0.33;;;;;20.65;48.29;101270.13;4937270;28;45351;-76
2023/12/24 09:00:57;;;;;;;;;0.67;0.00;;;;;20.84;48.36;101298.09;4937167;28;45339;-76
2023/12/24 09:03:22;;;;;;;;;0.50;0.50;;;;;20.74;47.71;101290.31;4936882;28;52213;-76
2023/12/24 09:05:47;;;;;;;;;0.00;0.00;;;;;20.72;48.08;101278.25;4937105;28;45347;-76
2023/12/24 09:08:13;;;;;;;;;2.00;0.00;;;;;20.67;48.16;101270.78;4937258;28;46108;-76
2023/12/24 09:10:38;;;;;;;;;0.00;0.00;;;;;20.82;47.86;101296.59;4937169;28;45386;-75
2023/12/24 09:13:03;;;;;;;;;0.00;0.00;;;;;20.81;47.83;101301.09;4936163;28;45390;-75
2023/12/24 09:15:28;;;;;;;;;0.00;0.00;;;;;20.75;48.19;101291.16;4936888;28;45391;-76
2023/12/24 09:17:54;;;;;;;;;0.67;0.67;;;;;20.74;47.83;101292.97;4951958;28;47322;-76
2023/12/24 09:20:19;;;;;;;;;0.00;0.00;;;;;20.84;47.81;101305.22;4936365;28;56989;-75
2023/12/24 09:22:44;;;;;;;;;1.00;1.00;;;;;20.68;47.65;101290.13;4937139;28;45284;-75
2023/12/24 09:25:10;;;;;;;;;1.00;0.00;;;;;20.78;48.31;101313.78;4938903;28;45299;-74
2023/12/24 09:27:35;;;;;;;;;2.00;0.00;;;;;20.76;47.97;101290.16;4940324;28;45347;-75
2023/12/24 09:30:04;;;;;;;;;1.00;1.00;;;;;20.84;47.82;101300.75;4940109;28;53481;-75
2023/12/24 09:32:31;;;;;;;;;0.00;0.00;;;;;20.64;48.30;101271.09;4940588;28;45302;-75
2023/12/24 09:34:56;;;;;;;;;1.00;0.00;;;;;20.84;48.08;101298.09;4939774;28;45474;-77
2023/12/24 09:37:21;;;;;;;;;1.33;1.33;;;;;20.77;48.29;101297.09;4940009;28;46909;-81
2023/12/24 09:39:46;;;;;;;;;0.00;0.00;;;;;20.87;48.03;101306.72;4940276;28;45559;-79
2023/12/24 09:42:12;;;;;;;;;1.00;0.00;;;;;20.80;47.86;101296.78;4939907;28;49347;-77
2023/12/24 09:44:37;;;;;;;;;1.00;0.00;;;;;20.57;48.02;101264.81;4940211;28;45395;-79
2023/12/24 09:47:03;;;;;;;;;0.00;0.00;;;;;20.84;48.13;101306.03;4939997;28;47266;-76
2023/12/24 09:49:28;;;;;;;;;3.67;1.00;;;;;20.72;48.37;101289.66;4939138;28;45488;-75
2023/12/24 09:51:54;;;;;;;;;0.00;0.00;;;;;20.87;48.36;101312.00;4940231;28;45557;-77
2023/12/24 09:54:20;;;;;;;;;3.00;0.00;;;;;20.36;48.26;101221.97;4940109;28;45421;-76
2023/12/24 09:56:45;;;;;;;;;2.67;1.00;;;;;20.82;48.85;101301.91;4939699;28;47267;-77
2023/12/24 09:59:11;;;;;;;;;1.00;0.00;;;;;20.75;48.46;101283.22;4939528;28;45344;-75
2023/12/24 10:01:45;;;;;;;;;1.00;0.00;;;;;20.90;48.38;101314.31;4954991;28;45379;-80
2023/12/24 10:04:11;;;;;;;;;1.67;1.00;;;;;20.79;48.46;101300.41;4939356;28;45413;-76
2023/12/24 10:06:56;;;;;;;;;0.00;0.00;;;;;20.90;48.95;101317.78;4939720;28;47383;-76
2023/12/24 10:09:23;;;;;;;;;0.00;0.00;;;;;20.79;48.98;101305.69;4939809;28;45302;-75
2023/12/24 10:12:15;;;;;;;;;0.00;0.00;;;;;20.67;49.07;101278.72;4939944;28;45373;-76
2023/12/24 10:14:52;;;;;;;;;0.33;0.33;;;;;20.82;48.77;101302.72;4936629;28;46204;-75
2023/12/24 10:17:30;;;;;;;;;0.00;0.00;;;;;20.89;48.88;101317.97;4939153;28;46762;-75
2023/12/24 10:19:56;;;;;;;;;0.67;0.67;;;;;20.81;49.03;101305.53;4939641;28;45355;-75
2023/12/24 10:22:25;;;;;;;;;0.00;0.00;;;;;20.80;49.13;101290.66;4939766;28;45411;-74
2023/12/24 10:24:59;;;;;;;;;0.00;0.00;;;;;20.79;48.65;101281.88;4938264;28;45499;-76
2023/12/24 10:27:24;;;;;;;;;1.67;0.67;;;;;20.91;49.14;101300.13;4939450;28;45679;-75
2023/12/24 10:29:49;;;;;;;;;2.33;1.33;;;;;20.85;48.66;101307.69;4939006;28;56447;-76
2023/12/24 10:32:22;;;;;;;;;1.67;0.33;;;;;20.66;48.93;101273.59;4939369;28;45788;-78
2023/12/24 10:34:56;;;;;;;;;0.00;0.00;;;;;20.93;48.81;101312.19;4939490;28;45491;-78
2023/12/24 10:37:27;;;;;;;;;0.00;0.00;;;;;20.96;48.94;101313.69;4936921;28;46114;-75
2023/12/24 10:39:53;;;;;;;;;0.33;0.33;;;;;20.98;49.29;101309.06;4939199;28;45921;-75
2023/12/24 10:42:19;;;;;;;;;0.67;0.00;;;;;21.01;49.29;101310.56;4932843;28;45488;-75
2023/12/24 10:44:45;;;;;;;;;0.67;0.67;;;;;21.04;49.59;101302.31;4924221;28;45351;-74
2023/12/24 10:47:11;;;;;;;;;5.33;0.00;;;;;20.99;49.40;101278.97;4923265;28;46191;-73
2023/12/24 10:49:38;;;;;;;;;1.00;1.00;;;;;21.02;49.15;101283.16;4952088;28;45361;-71
2023/12/24 10:52:05;;;;;;;;;0.33;0.33;;;;;21.05;49.13;101288.94;4958061;28;45332;-73
2023/12/24 10:54:31;;;;;;;;;1.00;0.00;;;;;21.06;49.49;101282.66;4958186;28;45262;-76
2023/12/24 10:57:12;;;;;;;;;0.33;0.33;;;;;21.08;49.35;101281.69;4958334;28;46388;-69
2023/12/24 11:00:12;;;;;;;;;0.00;0.00;;;;;21.06;49.52;101279.16;4957967;28;45383;-75
2023/12/24 11:02:47;;;;;;;;;0.00;0.00;;;;;21.09;49.23;101278.84;4948163;28;45326;-76
2023/12/24 11:05:48;;;;;;;;;1.00;0.00;;;;;21.10;49.11;101275.22;4939013;28;45311;-75
2023/12/24 11:08:19;;;;;;;;;0.00;0.00;;;;;21.10;49.47;101269.09;4938741;28;46652;-75
2023/12/24 11:10:44;;;;;;;;;0.00;0.00;;;;;21.06;49.34;101244.78;4938994;28;45442;-75
2023/12/24 11:13:31;;;;;;;;;1.00;0.67;;;;;21.11;49.03;101260.16;4938935;28;45312;-75
2023/12/24 11:15:57;;;;;;;;;3.00;0.67;;;;;20.93;48.86;101224.91;4938430;28;45556;-75
2023/12/24 11:18:41;;;;;;;;;1.00;1.00;;;;;21.09;49.34;101252.41;4938652;28;45371;-75
2023/12/24 11:21:07;;;;;;;;;2.00;0.00;;;;;21.09;49.21;101247.09;4938759;28;45438;-75
2023/12/24 11:23:32;;;;;;;;;0.00;0.00;;;;;21.09;49.13;101240.97;4938849;28;45467;-75